createdAt,value
2023-12-04T00:00:22.148Z,99467.25
2023-12-04T00:02:52.282Z,99471.41
2023-12-04T00:05:21.131Z,99472.91
2023-12-04T00:07:49.889Z,99468.50
2023-12-04T00:10:18.770Z,99464.75
2023-12-04T00:12:47.683Z,99458.88
2023-12-04T00:15:17.289Z,99443.41
2023-12-04T00:17:46.413Z,99448.66
2023-12-04T00:20:16.606Z,99439.25
2023-12-04T00:22:45.463Z,99436.25
2023-12-04T00:25:14.222Z,99426.72
2023-12-04T00:27:42.964Z,99423.53
2023-12-04T00:30:12.691Z,99423.44
2023-12-04T00:32:41.387Z,99431.84
2023-12-04T00:35:10.734Z,99427.41
2023-12-04T00:37:40.881Z,99432.06
2023-12-04T00:40:10.865Z,99438.72
2023-12-04T00:42:39.575Z,99428.53
2023-12-04T00:45:09.778Z,99433.34
2023-12-04T00:47:38.436Z,99436.91
2023-12-04T00:50:08.710Z,99431.66
2023-12-04T00:52:37.454Z,99423.63
2023-12-04T00:55:08.818Z,99424.34
2023-12-04T00:57:37.638Z,99428.22
2023-12-04T01:00:08.050Z,99425.88
2023-12-04T01:02:36.701Z,99432.78
2023-12-04T01:05:06.245Z,99421.84
2023-12-04T01:07:35.095Z,99429.28
2023-12-04T01:10:03.866Z,99429.03
2023-12-04T01:12:34.047Z,99426.91
2023-12-04T01:15:04.987Z,99429.50
2023-12-04T01:17:33.719Z,99436.78
2023-12-04T01:20:02.431Z,99443.91
2023-12-04T01:22:31.125Z,99443.81
2023-12-04T01:24:59.761Z,99440.66
2023-12-04T01:27:28.477Z,99445.53
2023-12-04T01:29:59.066Z,99448.88
2023-12-04T01:32:27.941Z,99448.06
2023-12-04T01:34:56.697Z,99446.09
2023-12-04T01:37:25.333Z,99447.03
2023-12-04T01:39:54.127Z,99440.19
2023-12-04T01:42:22.992Z,99442.91
2023-12-04T01:44:51.689Z,99436.59
2023-12-04T01:47:22.486Z,99431.59
2023-12-04T01:49:51.339Z,99424.28
2023-12-04T01:52:20.546Z,99422.38
2023-12-04T01:54:49.365Z,99421.41
2023-12-04T01:57:18.329Z,99416.03
2023-12-04T01:59:48.355Z,99421.56
2023-12-04T02:02:17.847Z,99416.59
2023-12-04T02:04:48.263Z,99415.25
2023-12-04T02:07:16.983Z,99417.44
2023-12-04T02:09:45.748Z,99412.59
2023-12-04T02:12:14.600Z,99410.41
2023-12-04T02:14:43.376Z,99407.50
2023-12-04T02:17:13.629Z,99395.63
2023-12-04T02:19:42.499Z,99397.84
2023-12-04T02:22:12.572Z,99390.00
2023-12-04T02:24:42.788Z,99389.00
2023-12-04T02:27:19.860Z,99383.22
2023-12-04T02:29:54.777Z,99378.22
2023-12-04T02:32:26.933Z,99377.31
2023-12-04T02:34:59.008Z,99374.00
2023-12-04T02:37:29.058Z,99371.94
2023-12-04T02:40:00.392Z,99370.28
2023-12-04T02:42:29.194Z,99356.50
2023-12-04T02:44:57.883Z,99355.13
2023-12-04T02:47:26.654Z,99348.53
2023-12-04T02:49:55.383Z,99341.09
2023-12-04T02:52:24.291Z,99337.75
2023-12-04T02:54:53.218Z,99334.75
2023-12-04T02:57:23.904Z,99333.09
2023-12-04T02:59:52.714Z,99331.28
2023-12-04T03:02:21.396Z,99320.94
2023-12-04T03:04:50.038Z,99322.47
2023-12-04T03:07:21.202Z,99322.59
2023-12-04T03:09:50.187Z,99324.13
2023-12-04T03:12:19.013Z,99327.13
2023-12-04T03:14:49.066Z,99325.09
2023-12-04T03:17:17.839Z,99324.13
2023-12-04T03:19:46.628Z,99326.31
2023-12-04T03:22:15.712Z,99316.25
2023-12-04T03:24:44.450Z,99317.34
2023-12-04T03:27:13.197Z,99313.72
2023-12-04T03:29:44.713Z,99317.09
2023-12-04T03:32:14.829Z,99318.03
2023-12-04T03:34:43.500Z,99314.16
2023-12-04T03:37:12.384Z,99315.53
2023-12-04T03:39:41.105Z,99303.00
2023-12-04T03:42:09.915Z,99301.06
2023-12-04T03:44:38.607Z,99302.03
2023-12-04T03:47:07.675Z,99299.97
2023-12-04T03:49:37.954Z,99303.00
2023-12-04T03:52:07.943Z,99305.75
2023-12-04T03:54:36.804Z,99303.91
2023-12-04T03:57:06.391Z,99300.75
2023-12-04T03:59:35.035Z,99290.88
2023-12-04T04:02:03.720Z,99300.06
2023-12-04T04:04:32.493Z,99297.72
2023-12-04T04:07:02.617Z,99296.09
2023-12-04T04:09:31.314Z,99294.03
2023-12-04T04:12:00.018Z,99295.00
2023-12-04T04:14:28.707Z,99290.16
2023-12-04T04:16:57.350Z,99289.91
2023-12-04T04:19:26.236Z,99297.47
2023-12-04T04:21:54.972Z,99293.03
2023-12-04T04:24:25.158Z,99283.56
2023-12-04T04:26:54.213Z,99282.31
2023-12-04T04:29:22.893Z,99281.84
2023-12-04T04:31:51.644Z,99273.97
2023-12-04T04:34:22.224Z,99266.38
2023-12-04T04:36:50.991Z,99265.41
2023-12-04T04:39:19.746Z,99259.59
2023-12-04T04:41:49.805Z,99261.53
2023-12-04T04:44:18.501Z,99254.03
2023-12-04T04:46:47.222Z,99242.13
2023-12-04T04:49:15.939Z,99244.16
2023-12-04T04:51:44.632Z,99246.72
2023-12-04T04:54:13.272Z,99245.06
2023-12-04T04:56:42.019Z,99248.38
2023-12-04T04:59:12.145Z,99241.53
2023-12-04T05:01:41.497Z,99242.25
2023-12-04T05:04:10.402Z,99245.38
2023-12-04T05:06:39.244Z,99250.22
2023-12-04T05:09:08.126Z,99256.97
2023-12-04T05:11:36.952Z,99253.28
2023-12-04T05:14:05.640Z,99257.28
2023-12-04T05:16:35.778Z,99256.72
2023-12-04T05:19:04.517Z,99258.94
2023-12-04T05:21:33.343Z,99243.38
2023-12-04T05:24:02.083Z,99248.72
2023-12-04T05:26:31.202Z,99234.94
2023-12-04T05:29:00.013Z,99229.56
2023-12-04T05:31:29.646Z,99217.56
2023-12-04T05:34:00.118Z,99208.47
2023-12-04T05:36:30.443Z,99208.84
2023-12-04T05:39:01.582Z,99208.97
2023-12-04T05:41:30.698Z,99200.41
2023-12-04T05:43:59.380Z,99206.75
2023-12-04T05:46:28.803Z,99190.59
2023-12-04T05:49:00.113Z,99191.81
2023-12-04T05:51:30.367Z,99176.91
2023-12-04T05:54:00.488Z,99163.94
2023-12-04T05:56:29.174Z,99160.75
2023-12-04T05:58:58.195Z,99159.50
2023-12-04T06:01:27.334Z,99152.63
2023-12-04T06:03:55.984Z,99144.34
2023-12-04T06:06:26.045Z,99153.19
2023-12-04T06:08:54.766Z,99150.56
2023-12-04T06:11:23.390Z,99150.66
2023-12-04T06:13:52.075Z,99141.81
2023-12-04T06:16:20.808Z,99143.88
2023-12-04T06:18:49.814Z,99141.25
2023-12-04T06:21:18.644Z,99145.91
2023-12-04T06:23:49.797Z,99148.25
2023-12-04T06:26:19.116Z,99144.50
2023-12-04T06:28:48.730Z,99147.56
2023-12-04T06:31:18.656Z,99139.09
2023-12-04T06:33:48.126Z,99150.81
2023-12-04T06:36:20.339Z,99145.50
2023-12-04T06:38:55.289Z,99146.03
2023-12-04T06:41:25.212Z,99153.00
2023-12-04T06:43:54.775Z,99154.88
2023-12-04T06:46:30.120Z,99142.13
2023-12-04T06:49:02.275Z,99141.84
2023-12-04T06:51:31.041Z,99147.47
2023-12-04T06:54:01.132Z,99142.81
2023-12-04T06:56:29.868Z,99148.97
2023-12-04T06:58:59.177Z,99147.16
2023-12-04T07:01:27.902Z,99158.47
2023-12-04T07:03:56.926Z,99155.69
2023-12-04T07:06:25.727Z,99153.06
2023-12-04T07:08:54.446Z,99144.38
2023-12-04T07:11:24.599Z,99139.94
2023-12-04T07:13:53.282Z,99130.16
2023-12-04T07:16:21.974Z,99118.53
2023-12-04T07:18:50.978Z,99126.72
2023-12-04T07:21:19.881Z,99119.94
2023-12-04T07:23:48.620Z,99117.03
2023-12-04T07:26:17.310Z,99121.75
2023-12-04T07:28:47.393Z,99125.34
2023-12-04T07:31:16.236Z,99123.56
2023-12-04T07:33:45.288Z,99125.28
2023-12-04T07:36:14.224Z,99126.63
2023-12-04T07:38:42.969Z,99115.31
2023-12-04T07:41:11.837Z,99105.03
2023-12-04T07:43:40.629Z,99103.13
2023-12-04T07:46:13.132Z,99103.13
2023-12-04T07:48:42.259Z,99100.94
2023-12-04T07:51:12.133Z,99097.72
2023-12-04T07:53:41.282Z,99099.56
2023-12-04T07:56:11.863Z,99098.34
2023-12-04T07:58:40.622Z,99099.16
2023-12-04T08:01:11.058Z,99097.13
2023-12-04T08:03:39.877Z,99095.38
2023-12-04T08:06:09.784Z,99091.47
2023-12-04T08:08:38.477Z,99099.38
2023-12-04T08:11:07.352Z,99093.50
2023-12-04T08:13:36.303Z,99090.94
2023-12-04T08:16:05.800Z,99086.06
2023-12-04T08:18:35.967Z,99087.25
2023-12-04T08:21:04.992Z,99090.06
2023-12-04T08:23:33.748Z,99087.44
2023-12-04T08:26:03.574Z,99087.94
2023-12-04T08:28:33.439Z,99082.91
2023-12-04T08:31:02.210Z,99080.47
2023-12-04T08:33:30.951Z,99072.44
2023-12-04T08:36:01.122Z,99073.13
2023-12-04T08:38:29.798Z,99074.13
2023-12-04T08:40:58.648Z,99079.88
2023-12-04T08:43:27.314Z,99069.03
2023-12-04T08:45:55.980Z,99068.72
2023-12-04T08:48:24.791Z,99069.91
2023-12-04T08:50:53.489Z,99075.53
2023-12-04T08:53:23.638Z,99068.28
2023-12-04T08:55:53.232Z,99064.19
2023-12-04T08:58:22.095Z,99068.63
2023-12-04T09:00:50.828Z,99062.22
2023-12-04T09:03:26.471Z,99056.44
2023-12-04T09:06:00.753Z,99061.06
2023-12-04T09:08:36.244Z,99058.75
2023-12-04T09:11:18.666Z,99051.38
2023-12-04T09:13:52.506Z,99049.38
2023-12-04T09:16:21.191Z,99050.38
2023-12-04T09:18:49.988Z,99045.59
2023-12-04T09:21:19.074Z,99044.59
2023-12-04T09:23:51.382Z,99048.22
2023-12-04T09:26:21.155Z,99043.28
2023-12-04T09:28:50.706Z,99044.44
2023-12-04T09:31:20.518Z,99039.97
2023-12-04T09:33:49.460Z,99037.03
2023-12-04T09:36:21.634Z,99031.56
2023-12-04T09:38:51.883Z,99035.97
2023-12-04T09:41:23.337Z,99032.81
2023-12-04T09:43:53.897Z,99031.28
2023-12-04T09:46:22.988Z,99032.09
2023-12-04T09:48:55.698Z,99018.34
2023-12-04T09:51:27.672Z,99016.28
2023-12-04T09:54:03.087Z,99018.84
2023-12-04T09:56:32.231Z,98999.22
2023-12-04T09:59:02.882Z,98991.91
2023-12-04T10:01:34.389Z,98983.25
2023-12-04T10:04:06.276Z,98989.28
2023-12-04T10:06:35.852Z,98982.59
2023-12-04T10:09:12.509Z,98969.94
2023-12-04T10:11:43.371Z,98960.41
2023-12-04T10:14:18.967Z,98953.41
2023-12-04T10:16:49.180Z,98951.41
2023-12-04T10:19:22.815Z,98948.34
2023-12-04T10:21:53.369Z,98944.47
2023-12-04T10:24:36.971Z,98941.84
2023-12-04T10:27:10.074Z,98947.84
2023-12-04T10:29:48.546Z,98942.03
2023-12-04T10:32:23.087Z,98948.31
2023-12-04T10:34:52.704Z,98946.22
2023-12-04T10:37:24.137Z,98944.81
2023-12-04T10:39:54.989Z,98943.03
2023-12-04T10:42:28.635Z,98932.97
2023-12-04T10:44:59.031Z,98934.41
2023-12-04T10:47:28.906Z,98934.97
2023-12-04T10:49:57.960Z,98933.69
2023-12-04T10:52:26.736Z,98932.41
2023-12-04T10:54:59.535Z,98929.59
2023-12-04T10:57:36.746Z,98923.22
2023-12-04T11:00:09.582Z,98923.41
2023-12-04T11:02:48.752Z,98917.31
2023-12-04T11:05:23.024Z,98917.94
2023-12-04T11:08:14.625Z,98914.56
2023-12-04T11:11:04.730Z,98909.84
2023-12-04T11:13:37.289Z,98910.81
2023-12-04T11:16:16.804Z,98898.31
2023-12-04T11:18:59.409Z,98897.72
2023-12-04T11:21:30.816Z,98881.97
2023-12-04T11:24:00.493Z,98886.50
2023-12-04T11:26:32.168Z,98874.31
2023-12-04T11:29:02.449Z,98875.56
2023-12-04T11:31:31.906Z,98871.94
2023-12-04T11:34:06.494Z,98868.19
2023-12-04T11:36:37.057Z,98855.81
2023-12-04T11:39:11.420Z,98849.06
2023-12-04T11:41:44.676Z,98839.97
2023-12-04T11:44:17.020Z,98826.78
2023-12-04T11:46:58.853Z,98825.03
2023-12-04T11:49:33.357Z,98822.22
2023-12-04T11:52:03.427Z,98808.81
2023-12-04T11:54:52.237Z,98816.09
2023-12-04T11:57:27.236Z,98813.09
2023-12-04T12:00:18.279Z,98798.41
2023-12-04T12:03:17.117Z,98811.75
2023-12-04T12:05:54.173Z,98804.53
2023-12-04T12:08:25.616Z,98791.63
2023-12-04T12:10:57.110Z,98786.34
2023-12-04T12:13:28.778Z,98792.25
2023-12-04T12:15:59.754Z,98779.28
2023-12-04T12:18:28.792Z,98782.44
2023-12-04T12:20:58.721Z,98778.53
2023-12-04T12:23:29.268Z,98776.53
2023-12-04T12:25:58.260Z,98764.69
2023-12-04T12:28:28.363Z,98761.16
2023-12-04T12:30:57.139Z,98765.31
2023-12-04T12:33:26.160Z,98755.31
2023-12-04T12:36:00.522Z,98765.94
2023-12-04T12:38:36.033Z,98767.56
2023-12-04T12:41:11.615Z,98757.00
2023-12-04T12:43:41.773Z,98761.13
2023-12-04T12:46:10.824Z,98761.53
2023-12-04T12:48:39.810Z,98761.53
2023-12-04T12:51:12.404Z,98758.53
2023-12-04T12:53:43.826Z,98759.97
2023-12-04T12:56:14.124Z,98766.72
2023-12-04T12:58:44.404Z,98765.72
2023-12-04T13:01:14.570Z,98757.53
2023-12-04T13:03:47.527Z,98762.03
2023-12-04T13:06:16.586Z,98751.28
2023-12-04T13:08:45.888Z,98747.56
2023-12-04T13:11:14.695Z,98751.66
2023-12-04T13:13:45.753Z,98744.94
2023-12-04T13:16:14.714Z,98743.91
2023-12-04T13:18:43.881Z,98739.66
2023-12-04T13:21:12.742Z,98730.84
2023-12-04T13:23:42.161Z,98727.53
2023-12-04T13:26:12.008Z,98722.25
2023-12-04T13:28:44.549Z,98720.63
2023-12-04T13:31:15.439Z,98714.91
2023-12-04T13:33:47.379Z,98708.78
2023-12-04T13:36:16.180Z,98709.19
2023-12-04T13:38:44.789Z,98699.41
2023-12-04T13:41:44.410Z,98703.00
2023-12-04T13:44:15.449Z,98693.41
2023-12-04T13:46:45.613Z,98693.41
2023-12-04T13:49:14.784Z,98688.94
2023-12-04T13:51:43.690Z,98689.78
2023-12-04T13:54:21.929Z,98681.91
2023-12-04T13:56:55.358Z,98678.44
2023-12-04T13:59:25.861Z,98670.28
2023-12-04T14:02:01.596Z,98667.81
2023-12-04T14:04:32.273Z,98667.81
2023-12-04T14:07:04.634Z,98673.91
2023-12-04T14:09:36.447Z,98668.63
2023-12-04T14:12:06.756Z,98658.06
2023-12-04T14:14:35.804Z,98669.44
2023-12-04T14:17:08.762Z,98659.22
2023-12-04T14:19:40.072Z,98668.75
2023-12-04T14:22:09.254Z,98663.28
2023-12-04T14:24:38.964Z,98658.00
2023-12-04T14:27:07.814Z,98657.19
2023-12-04T14:29:36.654Z,98659.38
2023-12-04T14:32:07.833Z,98650.81
2023-12-04T14:34:36.744Z,98658.31
2023-12-04T14:37:05.961Z,98652.66
2023-12-04T14:39:34.717Z,98654.66
2023-12-04T14:42:03.441Z,98646.75
2023-12-04T14:44:33.518Z,98640.56
2023-12-04T14:47:02.701Z,98639.66
2023-12-04T14:49:32.910Z,98638.03
2023-12-04T14:52:02.105Z,98635.69
2023-12-04T14:54:38.805Z,98645.31
2023-12-04T14:57:21.769Z,98634.69
2023-12-04T15:00:20.039Z,98638.66
2023-12-04T15:03:15.428Z,98635.75
2023-12-04T15:06:21.652Z,98637.75
2023-12-04T15:09:21.936Z,98634.69
2023-12-04T15:12:04.667Z,98635.75
2023-12-04T15:14:40.935Z,98636.94
2023-12-04T15:17:19.142Z,98631.31
2023-12-04T15:20:18.598Z,98631.59
2023-12-04T15:22:49.337Z,98616.13
2023-12-04T15:25:17.244Z,98615.03
2023-12-04T15:27:47.514Z,98615.66
2023-12-04T15:30:17.467Z,98605.84
2023-12-04T15:32:46.325Z,98601.13
2023-12-04T15:35:14.748Z,98595.13
2023-12-04T15:37:43.818Z,98597.47
2023-12-04T15:40:13.649Z,98593.75
2023-12-04T15:42:42.877Z,98590.03
2023-12-04T15:45:11.931Z,98583.94
2023-12-04T15:47:41.012Z,98588.03
2023-12-04T15:50:09.726Z,98591.56
2023-12-04T15:52:41.648Z,98592.94
2023-12-04T15:55:11.859Z,98587.41
2023-12-04T15:57:42.435Z,98582.78
2023-12-04T16:00:14.190Z,98572.66
2023-12-04T16:02:43.614Z,98572.56
2023-12-04T16:05:13.300Z,98570.13
2023-12-04T16:07:43.882Z,98573.47
2023-12-04T16:10:13.942Z,98570.78
2023-12-04T16:12:45.153Z,98566.75
2023-12-04T16:15:14.625Z,98558.91
2023-12-04T16:17:44.184Z,98555.84
2023-12-04T16:20:14.613Z,98558.03
2023-12-04T16:22:45.470Z,98562.59
2023-12-04T16:25:19.020Z,98559.94
2023-12-04T16:27:50.137Z,98564.31
2023-12-04T16:30:20.783Z,98561.13
2023-12-04T16:32:50.723Z,98554.84
2023-12-04T16:35:20.203Z,98554.28
2023-12-04T16:37:49.152Z,98555.84
2023-12-04T16:40:18.238Z,98549.03
2023-12-04T16:43:01.255Z,98545.91
2023-12-04T16:45:33.017Z,98555.38
2023-12-04T16:48:02.124Z,98563.47
2023-12-04T16:50:34.002Z,98551.94
2023-12-04T16:53:03.925Z,98561.50
2023-12-04T16:55:33.291Z,98562.75
2023-12-04T16:58:04.960Z,98551.41
2023-12-04T17:00:36.102Z,98545.22
2023-12-04T17:03:05.982Z,98541.84
2023-12-04T17:05:35.126Z,98539.59
2023-12-04T17:08:04.297Z,98530.50
2023-12-04T17:10:33.661Z,98527.94
2023-12-04T17:13:04.031Z,98523.16
2023-12-04T17:15:36.273Z,98523.94
2023-12-04T17:18:05.290Z,98518.66
2023-12-04T17:20:34.093Z,98524.59
2023-12-04T17:23:03.023Z,98518.84
2023-12-04T17:25:41.373Z,98521.41
2023-12-04T17:28:13.767Z,98516.59
2023-12-04T17:31:00.118Z,98511.78
2023-12-04T17:33:30.076Z,98504.69
2023-12-04T17:36:00.421Z,98507.59
2023-12-04T17:38:29.250Z,98512.88
2023-12-04T17:40:58.147Z,98508.78
2023-12-04T17:43:27.473Z,98501.78
2023-12-04T17:46:00.675Z,98498.97
2023-12-04T17:48:29.934Z,98507.13
2023-12-04T17:50:58.803Z,98512.88
2023-12-04T17:53:28.194Z,98519.41
2023-12-04T17:55:57.611Z,98514.22
2023-12-04T17:58:26.432Z,98501.41
2023-12-04T18:00:56.839Z,98488.97
2023-12-04T18:03:30.813Z,98503.44
2023-12-04T18:06:16.872Z,98504.94
2023-12-04T18:09:06.569Z,98502.06
2023-12-04T18:11:39.191Z,98503.31
2023-12-04T18:14:08.492Z,98503.31
2023-12-04T18:16:38.733Z,98514.69
2023-12-04T18:19:07.779Z,98506.06
2023-12-04T18:21:36.637Z,98508.69
2023-12-04T18:24:06.125Z,98504.97
2023-12-04T18:26:35.912Z,98496.78
2023-12-04T18:29:05.470Z,98500.22
2023-12-04T18:31:35.109Z,98497.41
2023-12-04T18:34:05.655Z,98500.69
2023-12-04T18:36:44.371Z,98498.22
2023-12-04T18:39:17.328Z,98487.50
2023-12-04T18:41:46.973Z,98482.53
2023-12-04T18:44:16.559Z,98480.59
2023-12-04T18:46:52.793Z,98473.44
2023-12-04T18:49:24.409Z,98473.72
2023-12-04T18:51:54.554Z,98477.53
2023-12-04T18:54:24.081Z,98474.78
2023-12-04T18:56:53.036Z,98469.59
2023-12-04T18:59:21.888Z,98470.81
2023-12-04T19:01:51.775Z,98460.34
2023-12-04T19:04:20.749Z,98466.91
2023-12-04T19:06:51.199Z,98468.53
2023-12-04T19:09:20.412Z,98470.78
2023-12-04T19:11:49.128Z,98469.16
2023-12-04T19:14:17.838Z,98462.44
2023-12-04T19:16:47.218Z,98457.28
2023-12-04T19:19:16.723Z,98449.88
2023-12-04T19:21:45.946Z,98438.28
2023-12-04T19:24:18.200Z,98431.91
2023-12-04T19:26:48.538Z,98445.75
2023-12-04T19:29:24.096Z,98440.75
2023-12-04T19:31:57.755Z,98440.56
2023-12-04T19:34:27.157Z,98446.97
2023-12-04T19:36:56.026Z,98448.81
2023-12-04T19:39:26.170Z,98445.28
2023-12-04T19:41:55.004Z,98440.97
2023-12-04T19:44:25.236Z,98439.72
2023-12-04T19:46:55.608Z,98442.53
2023-12-04T19:49:25.151Z,98425.97
2023-12-04T19:51:54.489Z,98415.09
2023-12-04T19:54:24.253Z,98410.44
2023-12-04T19:56:54.753Z,98411.25
2023-12-04T19:59:24.022Z,98415.53
2023-12-04T20:01:53.083Z,98410.69
2023-12-04T20:04:22.871Z,98408.72
2023-12-04T20:06:51.754Z,98408.53
2023-12-04T20:09:20.580Z,98409.81
2023-12-04T20:11:49.307Z,98409.84
2023-12-04T20:14:19.563Z,98409.84
2023-12-04T20:16:52.324Z,98410.38
2023-12-04T20:19:21.520Z,98408.00
2023-12-04T20:21:52.613Z,98406.63
2023-12-04T20:24:22.168Z,98404.63
2023-12-04T20:26:52.778Z,98403.44
2023-12-04T20:29:22.989Z,98397.97
2023-12-04T20:31:52.269Z,98399.81
2023-12-04T20:34:21.932Z,98392.25
2023-12-04T20:36:50.848Z,98399.06
2023-12-04T20:39:19.834Z,98395.28
2023-12-04T20:41:49.846Z,98394.06
2023-12-04T20:44:18.741Z,98386.63
2023-12-04T20:46:51.159Z,98378.53
2023-12-04T20:49:20.887Z,98376.03
2023-12-04T20:51:49.811Z,98369.00
2023-12-04T20:54:19.284Z,98363.59
2023-12-04T20:56:48.249Z,98362.31
2023-12-04T20:59:17.226Z,98353.78
2023-12-04T21:01:46.524Z,98345.88
2023-12-04T21:04:16.816Z,98343.94
2023-12-04T21:06:45.627Z,98342.16
2023-12-04T21:09:14.547Z,98343.66
2023-12-04T21:11:43.302Z,98349.41
2023-12-04T21:14:11.985Z,98348.13
2023-12-04T21:16:48.098Z,98349.19
2023-12-04T21:19:24.649Z,98345.81
2023-12-04T21:21:53.576Z,98338.31
2023-12-04T21:24:22.885Z,98339.28
2023-12-04T21:26:51.558Z,98341.16
2023-12-04T21:29:20.233Z,98351.53
2023-12-04T21:31:48.958Z,98344.63
2023-12-04T21:34:19.095Z,98334.47
2023-12-04T21:36:49.384Z,98327.53
2023-12-04T21:39:18.264Z,98321.25
2023-12-04T21:41:47.077Z,98327.53
2023-12-04T21:44:15.819Z,98329.88
2023-12-04T21:46:44.697Z,98341.22
2023-12-04T21:49:13.536Z,98332.56
2023-12-04T21:51:43.002Z,98318.25
2023-12-04T21:54:13.740Z,98321.75
2023-12-04T21:56:42.594Z,98317.38
2023-12-04T21:59:19.768Z,98320.91
2023-12-04T22:01:55.676Z,98317.06
2023-12-04T22:04:24.526Z,98315.69
2023-12-04T22:06:53.496Z,98315.56
2023-12-04T22:09:25.785Z,98319.13
2023-12-04T22:11:54.854Z,98314.94
2023-12-04T22:14:25.178Z,98316.28
2023-12-04T22:16:53.932Z,98311.88
2023-12-04T22:19:23.209Z,98308.38
2023-12-04T22:21:51.882Z,98311.00
2023-12-04T22:24:20.914Z,98306.09
2023-12-04T22:26:51.038Z,98305.78
2023-12-04T22:29:19.679Z,98305.34
2023-12-04T22:31:48.548Z,98301.31
2023-12-04T22:34:17.477Z,98292.41
2023-12-04T22:36:46.349Z,98288.91
2023-12-04T22:39:15.350Z,98289.91
2023-12-04T22:41:44.180Z,98293.66
2023-12-04T22:44:14.403Z,98294.03
2023-12-04T22:46:43.232Z,98298.56
2023-12-04T22:49:13.143Z,98295.31
2023-12-04T22:51:41.998Z,98299.00
2023-12-04T22:54:10.786Z,98294.16
2023-12-04T22:56:39.646Z,98285.88
2023-12-04T22:59:08.433Z,98271.47
2023-12-04T23:01:38.922Z,98264.16
2023-12-04T23:04:07.742Z,98267.63
2023-12-04T23:06:36.635Z,98275.94
2023-12-04T23:09:06.217Z,98285.63
2023-12-04T23:11:35.191Z,98292.16
2023-12-04T23:14:03.973Z,98292.16
2023-12-04T23:16:32.649Z,98293.78
2023-12-04T23:19:04.685Z,98287.31
2023-12-04T23:21:33.661Z,98288.97
2023-12-04T23:24:02.427Z,98281.22
2023-12-04T23:26:31.250Z,98271.06
2023-12-04T23:29:00.403Z,98269.19
2023-12-04T23:31:31.400Z,98266.91
2023-12-04T23:34:02.533Z,98260.03
2023-12-04T23:36:31.326Z,98260.22
2023-12-04T23:39:00.070Z,98260.34
2023-12-04T23:41:32.157Z,98263.75
2023-12-04T23:44:02.178Z,98253.63
2023-12-04T23:46:30.878Z,98254.63
2023-12-04T23:48:59.699Z,98261.53
2023-12-04T23:51:30.049Z,98249.38
2023-12-04T23:53:58.771Z,98252.06
2023-12-04T23:56:27.649Z,98239.78
2023-12-04T23:58:57.190Z,98245.81
